Santa Rita Park, California
Current Conditions -  °F | °C
As of 3:45 PM on Wednesday 28 Jan 2015 (Local Time) from KMER Reporting Station
Scattered Clouds Scattered Clouds  
Wind Chill: 61°   Ceiling: Unl
Heat Index: 61°   Visibility: 7mi
Dew Point: 55°   Wind: 3mph
Humidity: 82%   Direction: NA
Pressure: 30.17"   Gusts: NA
Location:  37.05°N, 120.6°W
Report Text: KMER 282345Z VRB03KT 7 SM SCT150 16/13 A3017
Loading
Personal Weather Stations






























Interactive Weather Map New forecast layout! Learn more

10-Day Weather Forecast

Advertisements
Track Severe Weather on mobile